sensor_id;sensor_type;location;lat;lon;timestamp;pressure;altitude;pressure_sealevel;temperature;humidity
70982;BME280;58640;51.320;9.456;2023-05-29T01:25:17;99699.66;;;14.23;73.77
70982;BME280;58640;51.320;9.456;2023-05-29T01:27:44;99705.28;;;14.07;74.85
70982;BME280;58640;51.320;9.456;2023-05-29T01:30:12;99703.91;;;13.96;75.61
70982;BME280;58640;51.320;9.456;2023-05-29T01:32:40;99698.69;;;13.95;75.99
70982;BME280;58640;51.320;9.456;2023-05-29T07:14:55;99925.53;;;35.53;19.80
70982;BME280;58640;51.320;9.456;2023-05-29T07:17:20;99929.47;;;36.37;18.69
70982;BME280;58640;51.320;9.456;2023-05-29T07:19:46;99934.88;;;36.97;18.38
70982;BME280;58640;51.320;9.456;2023-05-29T07:22:11;99921.34;;;35.33;20.20
70982;BME280;58640;51.320;9.456;2023-05-29T07:24:37;99923.31;;;34.77;20.62
70982;BME280;58640;51.320;9.456;2023-05-29T07:27:02;99926.63;;;34.26;21.02
70982;BME280;58640;51.320;9.456;2023-05-29T07:29:28;99915.81;;;33.45;21.90
70982;BME280;58640;51.320;9.456;2023-05-29T07:31:53;99922.06;;;35.39;20.37
70982;BME280;58640;51.320;9.456;2023-05-29T07:34:18;99921.84;;;35.27;20.32
70982;BME280;58640;51.320;9.456;2023-05-29T07:39:26;99926.72;;;34.65;20.29
70982;BME280;58640;51.320;9.456;2023-05-29T07:41:52;99927.69;;;35.00;19.19
70982;BME280;58640;51.320;9.456;2023-05-29T07:44:17;99931.97;;;35.54;19.94
70982;BME280;58640;51.320;9.456;2023-05-29T07:46:43;99933.88;;;36.47;18.69
70982;BME280;58640;51.320;9.456;2023-05-29T07:49:08;99925.66;;;36.42;18.40
70982;BME280;58640;51.320;9.456;2023-05-29T07:51:34;99924.88;;;35.65;18.78
70982;BME280;58640;51.320;9.456;2023-05-29T07:53:59;99926.41;;;34.67;20.04
70982;BME280;58640;51.320;9.456;2023-05-29T07:56:24;99925.78;;;35.34;19.30
70982;BME280;58640;51.320;9.456;2023-05-29T07:58:50;99922.47;;;35.07;19.43
70982;BME280;58640;51.320;9.456;2023-05-29T08:01:18;99928.22;;;31.93;23.50
70982;BME280;58640;51.320;9.456;2023-05-29T08:03:44;99931.94;;;27.94;30.85
70982;BME280;58640;51.320;9.456;2023-05-29T08:06:09;99930.50;;;27.81;29.59
70982;BME280;58640;51.320;9.456;2023-05-29T08:08:35;99921.50;;;26.11;32.57
70982;BME280;58640;51.320;9.456;2023-05-29T08:11:00;99924.13;;;26.69;31.99
70982;BME280;58640;51.320;9.456;2023-05-29T08:13:26;99929.19;;;26.04;32.78
70982;BME280;58640;51.320;9.456;2023-05-29T08:15:53;99924.84;;;27.11;31.21
70982;BME280;58640;51.320;9.456;2023-05-29T08:18:18;99931.63;;;28.55;29.39
70982;BME280;58640;51.320;9.456;2023-05-29T08:20:44;99932.78;;;30.86;25.14
70982;BME280;58640;51.320;9.456;2023-05-29T08:23:10;99935.03;;;33.19;22.71
70982;BME280;58640;51.320;9.456;2023-05-29T08:25:35;99936.41;;;33.08;22.53
70982;BME280;58640;51.320;9.456;2023-05-29T08:28:01;99930.72;;;33.98;21.00
70982;BME280;58640;51.320;9.456;2023-05-29T08:30:26;99931.00;;;32.57;23.17
70982;BME280;58640;51.320;9.456;2023-05-29T08:32:51;99924.94;;;31.91;23.33
70982;BME280;58640;51.320;9.456;2023-05-29T08:35:17;99923.56;;;30.39;26.60
70982;BME280;58640;51.320;9.456;2023-05-29T08:37:43;99922.28;;;29.59;27.77
70982;BME280;58640;51.320;9.456;2023-05-29T08:40:08;99919.94;;;28.69;29.29
70982;BME280;58640;51.320;9.456;2023-05-29T08:42:37;99917.16;;;29.37;27.67
70982;BME280;58640;51.320;9.456;2023-05-29T08:45:06;99915.19;;;30.15;27.48
70982;BME280;58640;51.320;9.456;2023-05-29T08:47:33;99917.44;;;29.79;27.68
70982;BME280;58640;51.320;9.456;2023-05-29T08:50:00;99929.94;;;29.77;28.36
70982;BME280;58640;51.320;9.456;2023-05-29T08:52:26;99922.03;;;30.80;25.93
70982;BME280;58640;51.320;9.456;2023-05-29T08:54:53;99930.03;;;31.47;25.49
70982;BME280;58640;51.320;9.456;2023-05-29T08:57:19;99925.63;;;32.47;23.39
70982;BME280;58640;51.320;9.456;2023-05-29T08:59:46;99927.66;;;31.59;24.67
70982;BME280;58640;51.320;9.456;2023-05-29T09:02:14;99936.38;;;32.81;23.25
70982;BME280;58640;51.320;9.456;2023-05-29T09:04:43;99934.59;;;33.75;23.23
70982;BME280;58640;51.320;9.456;2023-05-29T09:07:11;99935.94;;;34.66;21.12
70982;BME280;58640;51.320;9.456;2023-05-29T09:09:36;99924.63;;;32.70;23.06
70982;BME280;58640;51.320;9.456;2023-05-29T09:12:03;99930.19;;;32.70;22.84
70982;BME280;58640;51.320;9.456;2023-05-29T09:14:38;99933.38;;;32.78;24.22
70982;BME280;58640;51.320;9.456;2023-05-29T09:17:06;99931.75;;;34.02;22.18
70982;BME280;58640;51.320;9.456;2023-05-29T09:19:33;99935.72;;;32.43;23.31
70982;BME280;58640;51.320;9.456;2023-05-29T09:22:19;99925.34;;;32.62;23.50
70982;BME280;58640;51.320;9.456;2023-05-29T09:24:47;99933.22;;;33.01;23.39
70982;BME280;58640;51.320;9.456;2023-05-29T09:27:13;99929.00;;;34.11;21.88
70982;BME280;58640;51.320;9.456;2023-05-29T09:29:39;99928.09;;;34.46;21.41
70982;BME280;58640;51.320;9.456;2023-05-29T09:32:15;99930.94;;;33.66;23.05
70982;BME280;58640;51.320;9.456;2023-05-29T09:34:42;99928.22;;;33.74;22.62
70982;BME280;58640;51.320;9.456;2023-05-29T09:37:08;99926.50;;;34.31;21.52
70982;BME280;58640;51.320;9.456;2023-05-29T09:39:44;99934.34;;;33.00;23.28
70982;BME280;58640;51.320;9.456;2023-05-29T09:42:10;99927.63;;;33.64;22.62
70982;BME280;58640;51.320;9.456;2023-05-29T09:44:36;99932.78;;;32.81;24.04
70982;BME280;58640;51.320;9.456;2023-05-29T09:47:02;99930.94;;;33.66;22.81
70982;BME280;58640;51.320;9.456;2023-05-29T09:49:28;99933.72;;;33.88;22.21
70982;BME280;58640;51.320;9.456;2023-05-29T09:51:56;99933.50;;;32.86;22.56
70982;BME280;58640;51.320;9.456;2023-05-29T09:54:26;99931.41;;;32.37;23.86
70982;BME280;58640;51.320;9.456;2023-05-29T09:56:54;99926.69;;;32.79;23.33
70982;BME280;58640;51.320;9.456;2023-05-29T09:59:23;99939.75;;;30.60;26.27
70982;BME280;58640;51.320;9.456;2023-05-29T10:01:49;99929.47;;;31.26;25.40
70982;BME280;58640;51.320;9.456;2023-05-29T10:04:22;99927.84;;;30.55;26.17
70982;BME280;58640;51.320;9.456;2023-05-29T10:06:49;99917.53;;;30.60;26.30
70982;BME280;58640;51.320;9.456;2023-05-29T10:09:17;99924.72;;;32.20;25.54
70982;BME280;58640;51.320;9.456;2023-05-29T10:11:47;99912.50;;;31.09;25.50
70982;BME280;58640;51.320;9.456;2023-05-29T10:14:19;99920.59;;;30.59;26.13
70982;BME280;58640;51.320;9.456;2023-05-29T10:16:47;99920.09;;;30.80;26.23
70982;BME280;58640;51.320;9.456;2023-05-29T10:19:14;99911.47;;;31.00;25.57
70982;BME280;58640;51.320;9.456;2023-05-29T10:21:42;99919.22;;;29.99;27.13
70982;BME280;58640;51.320;9.456;2023-05-29T10:24:11;99906.63;;;30.40;27.02
70982;BME280;58640;51.320;9.456;2023-05-29T10:26:40;99906.31;;;30.94;25.90
70982;BME280;58640;51.320;9.456;2023-05-29T10:29:13;99904.34;;;28.93;27.47
70982;BME280;58640;51.320;9.456;2023-05-29T10:32:05;99898.13;;;30.55;26.34
70982;BME280;58640;51.320;9.456;2023-05-29T10:37:37;99908.84;;;30.90;27.21
70982;BME280;58640;51.320;9.456;2023-05-29T10:40:06;99905.78;;;31.10;25.85
70982;BME280;58640;51.320;9.456;2023-05-29T10:42:41;99905.84;;;31.29;25.82
70982;BME280;58640;51.320;9.456;2023-05-29T10:45:08;99897.50;;;30.87;27.37
70982;BME280;58640;51.320;9.456;2023-05-29T10:47:33;99886.16;;;30.83;27.25
70982;BME280;58640;51.320;9.456;2023-05-29T10:50:02;99888.91;;;30.08;28.60
70982;BME280;58640;51.320;9.456;2023-05-29T10:52:31;99891.22;;;29.57;28.57
70982;BME280;58640;51.320;9.456;2023-05-29T10:54:57;99892.31;;;29.17;29.23
70982;BME280;58640;51.320;9.456;2023-05-29T10:57:24;99898.16;;;28.32;29.95
70982;BME280;58640;51.320;9.456;2023-05-29T11:00:19;99893.13;;;28.59;30.18
70982;BME280;58640;51.320;9.456;2023-05-29T11:02:48;99897.50;;;28.80;28.95
70982;BME280;58640;51.320;9.456;2023-05-29T11:08:12;99892.66;;;28.12;31.57
70982;BME280;58640;51.320;9.456;2023-05-29T11:10:56;99891.00;;;27.86;32.17
70982;BME280;58640;51.320;9.456;2023-05-29T11:13:23;99890.34;;;27.18;33.53
70982;BME280;58640;51.320;9.456;2023-05-29T11:16:13;99881.75;;;26.43;33.72
70982;BME280;58640;51.320;9.456;2023-05-29T11:18:43;99883.00;;;25.31;37.73
70982;BME280;58640;51.320;9.456;2023-05-29T11:23:50;99886.31;;;24.41;39.00
70982;BME280;58640;51.320;9.456;2023-05-29T11:26:16;99893.72;;;23.86;40.19
70982;BME280;58640;51.320;9.456;2023-05-29T11:28:42;99890.53;;;23.45;42.50
70982;BME280;58640;51.320;9.456;2023-05-29T11:31:08;99883.78;;;23.52;41.48
70982;BME280;58640;51.320;9.456;2023-05-29T11:33:39;99886.63;;;23.41;41.68
70982;BME280;58640;51.320;9.456;2023-05-29T11:36:05;99882.22;;;23.11;41.31
70982;BME280;58640;51.320;9.456;2023-05-29T11:38:31;99872.19;;;22.89;42.34
70982;BME280;58640;51.320;9.456;2023-05-29T11:40:57;99876.25;;;22.86;41.76
70982;BME280;58640;51.320;9.456;2023-05-29T11:43:25;99867.84;;;23.66;41.30
70982;BME280;58640;51.320;9.456;2023-05-29T11:45:51;99871.72;;;23.37;42.22
70982;BME280;58640;51.320;9.456;2023-05-29T11:48:16;99871.47;;;23.38;41.70
70982;BME280;58640;51.320;9.456;2023-05-29T11:50:42;99864.00;;;23.67;40.22
70982;BME280;58640;51.320;9.456;2023-05-29T11:53:09;99861.69;;;23.75;40.58
70982;BME280;58640;51.320;9.456;2023-05-29T11:55:34;99871.75;;;23.53;42.66
70982;BME280;58640;51.320;9.456;2023-05-29T11:58:02;99861.75;;;23.31;44.25
70982;BME280;58640;51.320;9.456;2023-05-29T12:00:33;99858.66;;;23.27;42.39
70982;BME280;58640;51.320;9.456;2023-05-29T12:02:59;99871.13;;;23.35;42.40
70982;BME280;58640;51.320;9.456;2023-05-29T12:05:29;99868.47;;;23.40;42.67
70982;BME280;58640;51.320;9.456;2023-05-29T12:07:55;99868.91;;;23.48;40.50
70982;BME280;58640;51.320;9.456;2023-05-29T12:10:25;99866.16;;;23.48;43.59
70982;BME280;58640;51.320;9.456;2023-05-29T12:15:18;99858.16;;;23.30;41.42
70982;BME280;58640;51.320;9.456;2023-05-29T12:17:45;99858.50;;;23.34;40.78
70982;BME280;58640;51.320;9.456;2023-05-29T12:20:12;99865.16;;;23.09;42.03
70982;BME280;58640;51.320;9.456;2023-05-29T12:22:41;99872.72;;;23.31;41.64
70982;BME280;58640;51.320;9.456;2023-05-29T12:25:09;99873.16;;;23.11;42.34
70982;BME280;58640;51.320;9.456;2023-05-29T12:27:35;99864.63;;;22.68;43.28
70982;BME280;58640;51.320;9.456;2023-05-29T12:30:09;99863.47;;;22.52;44.51
70982;BME280;58640;51.320;9.456;2023-05-29T12:32:38;99874.06;;;22.49;44.28
70982;BME280;58640;51.320;9.456;2023-05-29T12:35:15;99866.44;;;22.51;43.95
70982;BME280;58640;51.320;9.456;2023-05-29T12:37:46;99881.66;;;22.70;44.53
70982;BME280;58640;51.320;9.456;2023-05-29T12:42:40;99875.06;;;22.82;42.81
70982;BME280;58640;51.320;9.456;2023-05-29T12:45:07;99867.03;;;22.92;44.32
70982;BME280;58640;51.320;9.456;2023-05-29T12:47:33;99873.66;;;22.80;43.54
70982;BME280;58640;51.320;9.456;2023-05-29T12:49:58;99873.69;;;22.68;44.43
70982;BME280;58640;51.320;9.456;2023-05-29T12:52:24;99861.56;;;22.53;45.59
70982;BME280;58640;51.320;9.456;2023-05-29T12:54:49;99857.75;;;22.42;44.89
70982;BME280;58640;51.320;9.456;2023-05-29T12:57:15;99864.50;;;22.63;44.14
70982;BME280;58640;51.320;9.456;2023-05-29T12:59:40;99862.44;;;22.30;44.53
70982;BME280;58640;51.320;9.456;2023-05-29T13:02:05;99863.25;;;22.31;45.42
70982;BME280;58640;51.320;9.456;2023-05-29T13:04:33;99858.69;;;22.48;44.02
70982;BME280;58640;51.320;9.456;2023-05-29T13:06:59;99858.34;;;22.33;43.94
70982;BME280;58640;51.320;9.456;2023-05-29T13:09:24;99862.41;;;22.42;44.89
70982;BME280;58640;51.320;9.456;2023-05-29T13:11:50;99858.91;;;22.58;43.75
70982;BME280;58640;51.320;9.456;2023-05-29T14:34:49;99854.22;;;21.96;43.38
70982;BME280;58640;51.320;9.456;2023-05-29T14:37:52;99859.50;;;21.86;46.02
70982;BME280;58640;51.320;9.456;2023-05-29T14:43:58;99856.41;;;21.29;45.80
70982;BME280;58640;51.320;9.456;2023-05-29T14:46:32;99843.56;;;21.30;44.97
70982;BME280;58640;51.320;9.456;2023-05-29T14:48:58;99854.63;;;21.23;46.00
70982;BME280;58640;51.320;9.456;2023-05-29T14:51:24;99851.06;;;21.34;45.94
70982;BME280;58640;51.320;9.456;2023-05-29T14:53:49;99855.94;;;21.32;45.79
70982;BME280;58640;51.320;9.456;2023-05-29T14:56:15;99859.50;;;21.33;43.63
70982;BME280;58640;51.320;9.456;2023-05-29T14:58:40;99851.00;;;21.11;45.58
70982;BME280;58640;51.320;9.456;2023-05-29T15:01:06;99852.56;;;21.07;46.07
70982;BME280;58640;51.320;9.456;2023-05-29T15:03:32;99846.75;;;21.15;45.46
70982;BME280;58640;51.320;9.456;2023-05-29T15:06:00;99856.78;;;21.03;44.74
70982;BME280;58640;51.320;9.456;2023-05-29T15:08:25;99852.03;;;20.99;44.54
70982;BME280;58640;51.320;9.456;2023-05-29T15:10:53;99860.38;;;21.04;45.83
70982;BME280;58640;51.320;9.456;2023-05-29T15:13:18;99857.03;;;21.02;45.36
70982;BME280;58640;51.320;9.456;2023-05-29T15:15:43;99858.28;;;21.17;43.60
70982;BME280;58640;51.320;9.456;2023-05-29T15:18:09;99850.81;;;20.95;44.71
70982;BME280;58640;51.320;9.456;2023-05-29T15:20:34;99849.94;;;21.12;45.22
70982;BME280;58640;51.320;9.456;2023-05-29T15:22:59;99853.34;;;21.08;44.20
70982;BME280;58640;51.320;9.456;2023-05-29T15:25:25;99858.81;;;20.96;45.83
70982;BME280;58640;51.320;9.456;2023-05-29T15:27:50;99858.81;;;20.96;44.83
70982;BME280;58640;51.320;9.456;2023-05-29T15:30:18;99856.84;;;20.85;44.14
70982;BME280;58640;51.320;9.456;2023-05-29T15:32:45;99858.81;;;20.96;45.57
70982;BME280;58640;51.320;9.456;2023-05-29T15:35:12;99857.41;;;21.05;45.09
70982;BME280;58640;51.320;9.456;2023-05-29T15:37:38;99857.69;;;21.15;43.54
70982;BME280;58640;51.320;9.456;2023-05-29T15:40:04;99873.06;;;20.98;44.84
70982;BME280;58640;51.320;9.456;2023-05-29T15:42:30;99867.03;;;20.96;44.42
70982;BME280;58640;51.320;9.456;2023-05-29T15:44:55;99864.88;;;20.98;43.32
70982;BME280;58640;51.320;9.456;2023-05-29T15:47:20;99848.97;;;20.89;45.44
70982;BME280;58640;51.320;9.456;2023-05-29T15:49:46;99850.19;;;20.93;43.67
70982;BME280;58640;51.320;9.456;2023-05-29T15:52:12;99846.69;;;21.04;43.30
70982;BME280;58640;51.320;9.456;2023-05-29T15:54:38;99844.34;;;20.89;44.23
70982;BME280;58640;51.320;9.456;2023-05-29T15:57:04;99842.31;;;21.03;42.90
70982;BME280;58640;51.320;9.456;2023-05-29T15:59:30;99843.41;;;20.84;43.95
70982;BME280;58640;51.320;9.456;2023-05-29T16:01:56;99836.50;;;20.63;44.37
70982;BME280;58640;51.320;9.456;2023-05-29T16:04:21;99832.88;;;20.69;43.66
70982;BME280;58640;51.320;9.456;2023-05-29T16:06:47;99831.03;;;20.63;44.05
70982;BME280;58640;51.320;9.456;2023-05-29T16:09:13;99825.41;;;20.76;43.62
70982;BME280;58640;51.320;9.456;2023-05-29T16:11:39;99836.56;;;20.75;43.57
70982;BME280;58640;51.320;9.456;2023-05-29T16:14:04;99838.59;;;20.79;42.85
70982;BME280;58640;51.320;9.456;2023-05-29T16:16:30;99841.25;;;20.86;43.05
70982;BME280;58640;51.320;9.456;2023-05-29T16:18:58;99842.78;;;21.00;42.17
70982;BME280;58640;51.320;9.456;2023-05-29T16:21:23;99836.00;;;20.84;42.82
70982;BME280;58640;51.320;9.456;2023-05-29T16:23:50;99836.75;;;20.62;43.35
70982;BME280;58640;51.320;9.456;2023-05-29T16:26:21;99835.47;;;20.64;43.49
70982;BME280;58640;51.320;9.456;2023-05-29T16:28:47;99840.16;;;20.75;43.15
70982;BME280;58640;51.320;9.456;2023-05-29T16:31:12;99840.84;;;20.71;42.95
70982;BME280;58640;51.320;9.456;2023-05-29T16:33:38;99834.84;;;20.62;42.75
70982;BME280;58640;51.320;9.456;2023-05-29T16:36:04;99839.72;;;20.60;42.59
70982;BME280;58640;51.320;9.456;2023-05-29T16:38:29;99843.97;;;20.56;43.25
70982;BME280;58640;51.320;9.456;2023-05-29T16:40:55;99849.78;;;20.78;42.21
70982;BME280;58640;51.320;9.456;2023-05-29T16:43:20;99839.94;;;20.59;42.91
70982;BME280;58640;51.320;9.456;2023-05-29T16:45:47;99841.50;;;20.37;43.08
70982;BME280;58640;51.320;9.456;2023-05-29T16:48:13;99834.63;;;20.46;42.79
70982;BME280;58640;51.320;9.456;2023-05-29T16:50:38;99850.22;;;20.45;42.74
70982;BME280;58640;51.320;9.456;2023-05-29T16:53:03;99844.06;;;20.31;43.55
70982;BME280;58640;51.320;9.456;2023-05-29T16:55:29;99845.84;;;20.26;42.87
70982;BME280;58640;51.320;9.456;2023-05-29T16:57:54;99843.97;;;20.02;44.13
70982;BME280;58640;51.320;9.456;2023-05-29T17:00:20;99845.34;;;20.11;43.03
70982;BME280;58640;51.320;9.456;2023-05-29T17:02:45;99843.34;;;20.00;43.50
70982;BME280;58640;51.320;9.456;2023-05-29T17:05:10;99843.75;;;20.03;42.83
70982;BME280;58640;51.320;9.456;2023-05-29T17:07:36;99839.03;;;19.92;43.32
70982;BME280;58640;51.320;9.456;2023-05-29T17:10:02;99846.31;;;19.98;43.14
70982;BME280;58640;51.320;9.456;2023-05-29T17:12:28;99844.50;;;19.92;43.24
70982;BME280;58640;51.320;9.456;2023-05-29T17:14:53;99850.34;;;19.96;42.59
70982;BME280;58640;51.320;9.456;2023-05-29T17:17:19;99863.91;;;19.84;42.92
70982;BME280;58640;51.320;9.456;2023-05-29T17:19:44;99856.38;;;19.80;43.08
70982;BME280;58640;51.320;9.456;2023-05-29T17:22:10;99865.91;;;19.71;43.32
70982;BME280;58640;51.320;9.456;2023-05-29T17:24:35;99866.75;;;19.71;42.95
70982;BME280;58640;51.320;9.456;2023-05-29T17:27:00;99871.16;;;19.48;43.82
70982;BME280;58640;51.320;9.456;2023-05-29T17:29:29;99872.41;;;19.45;44.13
70982;BME280;58640;51.320;9.456;2023-05-29T17:31:54;99869.06;;;19.50;43.65
70982;BME280;58640;51.320;9.456;2023-05-29T17:34:19;99873.53;;;19.38;43.73
70982;BME280;58640;51.320;9.456;2023-05-29T17:36:45;99870.75;;;19.44;43.14
70982;BME280;58640;51.320;9.456;2023-05-29T17:39:10;99879.13;;;19.49;43.87
70982;BME280;58640;51.320;9.456;2023-05-29T17:41:36;99881.28;;;19.41;42.66
70982;BME280;58640;51.320;9.456;2023-05-29T17:44:01;99888.53;;;19.29;43.63
70982;BME280;58640;51.320;9.456;2023-05-29T17:46:28;99897.69;;;19.28;44.08
70982;BME280;58640;51.320;9.456;2023-05-29T17:48:53;99889.78;;;19.20;42.79
70982;BME280;58640;51.320;9.456;2023-05-29T17:51:19;99897.19;;;19.13;42.74
70982;BME280;58640;51.320;9.456;2023-05-29T17:53:47;99882.72;;;19.12;43.21
70982;BME280;58640;51.320;9.456;2023-05-29T17:56:12;99893.66;;;19.06;42.77
70982;BME280;58640;51.320;9.456;2023-05-29T17:58:38;99884.91;;;18.97;43.50
70982;BME280;58640;51.320;9.456;2023-05-29T18:01:03;99894.53;;;19.00;42.98
70982;BME280;58640;51.320;9.456;2023-05-29T18:03:28;99887.50;;;18.85;43.02
70982;BME280;58640;51.320;9.456;2023-05-29T18:05:54;99890.47;;;18.77;43.58
70982;BME280;58640;51.320;9.456;2023-05-29T18:08:19;99891.72;;;18.75;43.69
70982;BME280;58640;51.320;9.456;2023-05-29T18:10:45;99892.09;;;18.85;43.39
70982;BME280;58640;51.320;9.456;2023-05-29T18:13:10;99900.16;;;18.67;44.44
70982;BME280;58640;51.320;9.456;2023-05-29T18:15:35;99895.31;;;18.69;43.53
70982;BME280;58640;51.320;9.456;2023-05-29T18:18:01;99899.13;;;18.61;43.40
70982;BME280;58640;51.320;9.456;2023-05-29T18:20:26;99900.69;;;18.44;43.78
70982;BME280;58640;51.320;9.456;2023-05-29T18:22:54;99898.53;;;18.53;43.08
70982;BME280;58640;51.320;9.456;2023-05-29T18:25:21;99901.91;;;18.48;43.59
70982;BME280;58640;51.320;9.456;2023-05-29T18:27:46;99902.75;;;18.36;43.75
70982;BME280;58640;51.320;9.456;2023-05-29T18:30:12;99899.63;;;18.39;43.19
70982;BME280;58640;51.320;9.456;2023-05-29T18:32:38;99904.66;;;18.35;42.95
70982;BME280;58640;51.320;9.456;2023-05-29T18:35:03;99894.22;;;18.19;43.27
70982;BME280;58640;51.320;9.456;2023-05-29T18:37:29;99893.63;;;18.11;42.60
70982;BME280;58640;51.320;9.456;2023-05-29T18:39:55;99889.66;;;18.00;43.24
70982;BME280;58640;51.320;9.456;2023-05-29T18:42:21;99894.28;;;17.93;42.92
70982;BME280;58640;51.320;9.456;2023-05-29T18:44:46;99896.59;;;17.96;42.69
70982;BME280;58640;51.320;9.456;2023-05-29T18:47:11;99897.59;;;18.02;42.05
70982;BME280;58640;51.320;9.456;2023-05-29T18:49:43;99895.31;;;17.86;42.04
70982;BME280;58640;51.320;9.456;2023-05-29T18:52:08;99902.47;;;17.87;41.20
70982;BME280;58640;51.320;9.456;2023-05-29T18:54:34;99902.69;;;17.72;42.40
70982;BME280;58640;51.320;9.456;2023-05-29T18:57:01;99911.91;;;17.65;41.53
70982;BME280;58640;51.320;9.456;2023-05-29T18:59:27;99921.09;;;17.70;41.00
70982;BME280;58640;51.320;9.456;2023-05-29T19:01:52;99917.94;;;17.73;40.81
70982;BME280;58640;51.320;9.456;2023-05-29T19:04:18;99923.00;;;17.57;40.41
70982;BME280;58640;51.320;9.456;2023-05-29T19:06:43;99929.88;;;17.52;42.41
70982;BME280;58640;51.320;9.456;2023-05-29T19:09:08;99929.66;;;17.54;40.22
70982;BME280;58640;51.320;9.456;2023-05-29T19:11:35;99933.81;;;17.43;40.54
70982;BME280;58640;51.320;9.456;2023-05-29T19:14:00;99926.88;;;17.34;40.60
70982;BME280;58640;51.320;9.456;2023-05-29T19:16:26;99934.44;;;17.32;39.99
70982;BME280;58640;51.320;9.456;2023-05-29T19:18:51;99930.84;;;17.25;40.51
70982;BME280;58640;51.320;9.456;2023-05-29T19:21:17;99940.06;;;17.24;40.18
70982;BME280;58640;51.320;9.456;2023-05-29T19:23:43;99943.38;;;17.07;40.85
70982;BME280;58640;51.320;9.456;2023-05-29T19:26:09;99946.91;;;17.07;40.65
70982;BME280;58640;51.320;9.456;2023-05-29T19:28:34;99938.78;;;17.14;40.50
70982;BME280;58640;51.320;9.456;2023-05-29T19:31:00;99938.97;;;17.06;40.68
70982;BME280;58640;51.320;9.456;2023-05-29T19:33:26;99934.13;;;16.95;41.01
70982;BME280;58640;51.320;9.456;2023-05-29T19:35:51;99937.50;;;17.03;40.62
70982;BME280;58640;51.320;9.456;2023-05-29T19:38:16;99937.69;;;16.95;40.87
70982;BME280;58640;51.320;9.456;2023-05-29T19:40:42;99946.25;;;16.92;40.97
70982;BME280;58640;51.320;9.456;2023-05-29T19:43:08;99940.97;;;16.78;42.24
70982;BME280;58640;51.320;9.456;2023-05-29T19:45:34;99947.59;;;16.62;42.18
70982;BME280;58640;51.320;9.456;2023-05-29T19:48:00;99946.56;;;16.70;41.15
70982;BME280;58640;51.320;9.456;2023-05-29T19:50:25;99947.81;;;16.61;41.44
70982;BME280;58640;51.320;9.456;2023-05-29T19:52:51;99952.97;;;16.49;41.64
70982;BME280;58640;51.320;9.456;2023-05-29T19:55:17;99950.44;;;16.48;41.58
70982;BME280;58640;51.320;9.456;2023-05-29T19:57:42;99956.53;;;16.56;41.32
70982;BME280;58640;51.320;9.456;2023-05-29T20:00:09;99959.44;;;16.48;42.02
70982;BME280;58640;51.320;9.456;2023-05-29T20:02:35;99960.06;;;16.50;42.08
70982;BME280;58640;51.320;9.456;2023-05-29T20:05:02;99959.25;;;16.50;41.72
70982;BME280;58640;51.320;9.456;2023-05-29T20:07:27;99962.91;;;16.42;42.11
70982;BME280;58640;51.320;9.456;2023-05-29T20:09:54;99965.16;;;16.32;42.64
70982;BME280;58640;51.320;9.456;2023-05-29T20:12:19;99970.19;;;16.35;42.59
70982;BME280;58640;51.320;9.456;2023-05-29T20:14:46;99966.88;;;16.40;42.42
70982;BME280;58640;51.320;9.456;2023-05-29T20:17:11;99972.94;;;16.42;42.49
70982;BME280;58640;51.320;9.456;2023-05-29T20:19:37;99978.28;;;16.29;43.21
70982;BME280;58640;51.320;9.456;2023-05-29T20:22:04;99978.34;;;16.35;42.98
70982;BME280;58640;51.320;9.456;2023-05-29T20:24:30;99976.38;;;16.23;43.05
70982;BME280;58640;51.320;9.456;2023-05-29T20:26:56;99980.34;;;16.27;42.99
70982;BME280;58640;51.320;9.456;2023-05-29T20:29:21;99985.13;;;16.25;43.03
70982;BME280;58640;51.320;9.456;2023-05-29T21:31:38;99985.00;;;15.00;48.58
70982;BME280;58640;51.320;9.456;2023-05-29T21:34:13;99977.72;;;14.86;49.33
70982;BME280;58640;51.320;9.456;2023-05-29T21:37:09;99979.94;;;14.97;49.22
70982;BME280;58640;51.320;9.456;2023-05-29T21:39:55;99978.03;;;14.76;50.69
70982;BME280;58640;51.320;9.456;2023-05-29T21:42:40;99983.53;;;14.83;50.43
70982;BME280;58640;51.320;9.456;2023-05-29T21:45:26;99989.50;;;14.78;51.11
70982;BME280;58640;51.320;9.456;2023-05-29T21:48:17;99984.00;;;14.72;51.49
70982;BME280;58640;51.320;9.456;2023-05-29T21:50:42;99979.44;;;14.87;51.13
70982;BME280;58640;51.320;9.456;2023-05-29T21:53:09;99985.78;;;14.79;51.48
70982;BME280;58640;51.320;9.456;2023-05-29T21:55:35;99995.50;;;14.88;51.72
70982;BME280;58640;51.320;9.456;2023-05-29T21:58:00;99992.72;;;14.67;52.68
70982;BME280;58640;51.320;9.456;2023-05-29T22:00:26;99998.03;;;14.60;52.51
70982;BME280;58640;51.320;9.456;2023-05-29T22:02:54;99993.00;;;14.72;52.20
70982;BME280;58640;51.320;9.456;2023-05-29T22:05:20;99993.47;;;14.61;52.91
70982;BME280;58640;51.320;9.456;2023-05-29T22:07:45;100005.97;;;14.47;53.65
70982;BME280;58640;51.320;9.456;2023-05-29T22:10:11;100001.97;;;14.58;53.02
70982;BME280;58640;51.320;9.456;2023-05-29T22:12:36;99999.81;;;14.39;53.70
70982;BME280;58640;51.320;9.456;2023-05-29T22:15:03;100002.81;;;14.29;54.54
70982;BME280;58640;51.320;9.456;2023-05-29T22:17:28;100014.56;;;14.36;54.05
70982;BME280;58640;51.320;9.456;2023-05-29T22:19:54;100015.78;;;14.34;54.41
70982;BME280;58640;51.320;9.456;2023-05-29T22:22:20;100018.03;;;14.08;55.39
70982;BME280;58640;51.320;9.456;2023-05-29T22:24:46;100017.66;;;14.11;55.94
70982;BME280;58640;51.320;9.456;2023-05-29T22:27:14;100020.09;;;14.20;54.79
70982;BME280;58640;51.320;9.456;2023-05-29T22:29:40;100025.78;;;14.11;55.31
70982;BME280;58640;51.320;9.456;2023-05-29T22:32:05;100023.03;;;13.96;56.08
70982;BME280;58640;51.320;9.456;2023-05-29T22:34:31;100027.44;;;13.97;56.09
70982;BME280;58640;51.320;9.456;2023-05-29T22:36:57;100024.00;;;14.03;55.72
70982;BME280;58640;51.320;9.456;2023-05-29T22:39:22;100029.31;;;13.97;55.95
70982;BME280;58640;51.320;9.456;2023-05-29T22:41:47;100032.38;;;13.94;56.02
70982;BME280;58640;51.320;9.456;2023-05-29T22:44:13;100037.75;;;13.79;56.52